createdAt,value
2019-01-29T00:02:13.145Z,81.43
2019-01-29T00:04:43.330Z,81.35
2019-01-29T00:07:13.435Z,81.58
2019-01-29T00:09:43.559Z,81.52
2019-01-29T00:12:13.681Z,81.53
2019-01-29T00:14:43.795Z,81.41
2019-01-29T00:17:13.944Z,81.60
2019-01-29T00:19:44.093Z,81.49
2019-01-29T00:22:14.198Z,81.51
2019-01-29T00:24:44.290Z,81.48
2019-01-29T00:27:14.451Z,81.43
2019-01-29T00:29:44.556Z,81.37
2019-01-29T00:32:14.704Z,81.48
2019-01-29T00:34:44.816Z,81.40
2019-01-29T00:37:14.934Z,81.42
2019-01-29T00:39:45.049Z,81.43
2019-01-29T00:42:15.211Z,81.35
2019-01-29T00:44:45.307Z,81.45
2019-01-29T00:47:15.442Z,81.43
2019-01-29T00:49:45.562Z,81.50
2019-01-29T00:52:15.682Z,81.46
2019-01-29T00:54:45.787Z,81.42
2019-01-29T00:57:15.950Z,81.54
2019-01-29T00:59:46.063Z,81.66
2019-01-29T01:02:16.208Z,81.69
2019-01-29T01:04:47.335Z,81.80
2019-01-29T01:07:17.461Z,81.87
2019-01-29T01:09:56.844Z,81.69
2019-01-29T01:12:21.504Z,81.70
2019-01-29T01:14:51.620Z,81.67
2019-01-29T01:17:21.785Z,81.77
2019-01-29T01:19:52.298Z,81.74
2019-01-29T01:22:22.428Z,81.66
2019-01-29T01:24:52.565Z,81.67
2019-01-29T01:27:22.682Z,81.54
2019-01-29T01:29:52.825Z,81.47
2019-01-29T01:32:22.984Z,81.57
2019-01-29T01:34:53.211Z,81.45
2019-01-29T01:37:23.363Z,81.61
2019-01-29T01:39:53.488Z,81.29
2019-01-29T01:42:23.627Z,81.16
2019-01-29T01:44:53.725Z,80.95
2019-01-29T01:47:23.860Z,80.95
2019-01-29T01:49:53.977Z,80.90
2019-01-29T01:52:24.122Z,81.01
2019-01-29T01:54:54.832Z,81.06
2019-01-29T01:57:24.956Z,81.00
2019-01-29T01:59:55.060Z,81.05
2019-01-29T02:02:25.206Z,81.02
2019-01-29T02:04:55.376Z,81.12
2019-01-29T02:07:25.472Z,81.10
2019-01-29T02:09:55.586Z,81.20
2019-01-29T02:12:25.721Z,81.18
2019-01-29T02:14:55.830Z,81.20
2019-01-29T02:17:25.985Z,81.11
2019-01-29T02:19:56.199Z,81.18
2019-01-29T02:22:26.300Z,81.08
2019-01-29T02:24:56.414Z,81.15
2019-01-29T02:27:26.560Z,81.04
2019-01-29T02:29:56.672Z,81.03
2019-01-29T02:32:26.808Z,81.05
2019-01-29T02:34:56.964Z,81.09
2019-01-29T02:37:27.278Z,81.13
2019-01-29T02:39:57.397Z,81.13
2019-01-29T02:42:27.526Z,81.15
2019-01-29T02:44:57.642Z,81.20
2019-01-29T02:47:27.777Z,81.08
2019-01-29T02:49:57.889Z,81.18
2019-01-29T02:52:28.017Z,81.18
2019-01-29T02:54:58.140Z,81.21
2019-01-29T02:57:28.348Z,81.33
2019-01-29T02:59:58.552Z,81.37
2019-01-29T03:02:28.711Z,81.46
2019-01-29T03:04:58.829Z,81.48
2019-01-29T03:07:28.979Z,81.50
2019-01-29T03:09:59.099Z,81.61
2019-01-29T03:12:29.230Z,81.67
2019-01-29T03:14:59.361Z,81.64
2019-01-29T03:17:30.925Z,81.72
2019-01-29T03:20:01.042Z,81.53
2019-01-29T03:22:31.204Z,81.67
2019-01-29T03:25:01.742Z,81.65
2019-01-29T03:27:31.894Z,81.57
2019-01-29T03:30:02.033Z,81.41
2019-01-29T03:32:33.237Z,81.27
2019-01-29T03:35:03.419Z,81.29
2019-01-29T03:37:33.732Z,81.36
2019-01-29T03:40:04.668Z,81.23
2019-01-29T03:42:34.832Z,81.16
2019-01-29T03:45:06.384Z,80.95
2019-01-29T03:47:36.516Z,81.02
2019-01-29T03:50:08.739Z,80.95
2019-01-29T03:52:38.920Z,80.94
2019-01-29T03:55:09.922Z,80.97
2019-01-29T03:57:40.032Z,81.02
2019-01-29T04:00:21.255Z,81.05
2019-01-29T04:02:51.443Z,81.09
2019-01-29T04:05:21.892Z,80.93
2019-01-29T04:07:52.201Z,81.08
2019-01-29T04:10:22.302Z,81.18
2019-01-29T04:12:52.406Z,81.21
2019-01-29T04:15:23.201Z,81.19
2019-01-29T04:17:57.387Z,81.21
2019-01-29T04:20:27.813Z,81.29
2019-01-29T04:22:57.908Z,81.25
2019-01-29T04:25:28.023Z,81.16
2019-01-29T04:27:58.165Z,81.09
2019-01-29T04:30:28.274Z,81.10
2019-01-29T04:32:58.390Z,81.17
2019-01-29T04:35:28.504Z,81.20
2019-01-29T04:37:58.614Z,80.95
2019-01-29T04:40:28.855Z,80.42
2019-01-29T04:42:58.971Z,80.51
2019-01-29T04:45:29.114Z,80.06
2019-01-29T04:47:59.260Z,80.34
2019-01-29T04:50:29.482Z,80.42
2019-01-29T04:52:59.697Z,80.57
2019-01-29T04:55:29.875Z,80.81
2019-01-29T04:58:00.004Z,80.85
2019-01-29T05:00:30.147Z,80.92
2019-01-29T05:03:00.277Z,81.02
2019-01-29T05:05:30.390Z,80.83
2019-01-29T05:08:00.536Z,80.71
2019-01-29T05:10:30.772Z,80.82
2019-01-29T05:13:00.880Z,80.86
2019-01-29T05:15:31.025Z,81.19
2019-01-29T05:18:01.155Z,80.37
2019-01-29T05:20:31.269Z,80.48
2019-01-29T05:23:01.389Z,80.45
2019-01-29T05:25:31.508Z,80.15
2019-01-29T05:28:01.618Z,80.60
2019-01-29T05:30:31.770Z,80.80
2019-01-29T05:33:01.919Z,80.63
2019-01-29T05:35:32.036Z,80.44
2019-01-29T05:38:04.165Z,80.31
2019-01-29T05:40:33.941Z,80.35
2019-01-29T05:43:04.174Z,80.28
2019-01-29T05:45:34.289Z,80.26
2019-01-29T05:48:04.411Z,80.14
2019-01-29T05:50:34.525Z,80.56
2019-01-29T05:53:04.666Z,80.86
2019-01-29T05:55:34.940Z,80.77
2019-01-29T05:58:05.060Z,81.21
2019-01-29T06:00:37.802Z,81.23
2019-01-29T06:03:08.692Z,81.37
2019-01-29T06:05:38.821Z,81.47
2019-01-29T06:08:08.929Z,81.57
2019-01-29T06:10:39.389Z,81.45
2019-01-29T06:13:09.730Z,81.58
2019-01-29T06:15:41.653Z,81.68
2019-01-29T06:18:11.845Z,81.68
2019-01-29T06:20:41.963Z,81.70
2019-01-29T06:23:12.084Z,81.58
2019-01-29T06:25:42.360Z,81.77
2019-01-29T06:28:12.540Z,81.84
2019-01-29T06:30:44.075Z,81.68
2019-01-29T06:33:15.223Z,81.81
2019-01-29T06:35:45.340Z,81.82
2019-01-29T06:38:15.447Z,81.83
2019-01-29T06:40:45.561Z,81.88
2019-01-29T06:43:15.763Z,81.95
2019-01-29T06:45:45.858Z,81.98
2019-01-29T06:48:16.624Z,81.92
2019-01-29T06:50:46.787Z,81.80
2019-01-29T06:53:16.943Z,81.84
2019-01-29T06:55:48.114Z,82.09
2019-01-29T06:58:18.223Z,82.13
2019-01-29T07:00:48.656Z,82.11
2019-01-29T07:03:18.760Z,81.93
2019-01-29T07:05:49.041Z,82.04
2019-01-29T07:08:19.604Z,82.10
2019-01-29T07:10:49.762Z,82.21
2019-01-29T07:13:19.881Z,82.37
2019-01-29T07:16:03.371Z,82.18
2019-01-29T07:18:43.252Z,82.05
2019-01-29T07:21:13.342Z,81.74
2019-01-29T07:23:43.498Z,81.91
2019-01-29T07:26:13.621Z,82.28
2019-01-29T07:28:43.752Z,82.51
2019-01-29T07:31:13.943Z,82.13
2019-01-29T07:33:44.056Z,81.52
2019-01-29T07:36:14.218Z,82.01
2019-01-29T07:38:44.353Z,82.07
2019-01-29T07:41:14.466Z,82.08
2019-01-29T07:43:44.653Z,81.63
2019-01-29T07:46:14.786Z,80.76
2019-01-29T07:48:44.904Z,81.37
2019-01-29T07:51:15.038Z,81.82
2019-01-29T07:53:45.177Z,81.99
2019-01-29T07:56:15.305Z,81.99
2019-01-29T07:58:45.435Z,82.04
2019-01-29T08:01:15.570Z,81.99
2019-01-29T08:03:45.704Z,82.10
2019-01-29T08:06:15.897Z,81.60
2019-01-29T08:08:46.070Z,81.74
2019-01-29T08:11:16.178Z,81.91
2019-01-29T08:13:46.302Z,81.62
2019-01-29T08:16:16.533Z,81.70
2019-01-29T08:18:46.671Z,81.86
2019-01-29T08:21:16.843Z,81.78
2019-01-29T08:23:46.968Z,81.77
2019-01-29T08:26:17.179Z,81.63
2019-01-29T08:28:48.029Z,81.69
2019-01-29T08:31:18.167Z,80.89
2019-01-29T08:33:48.335Z,81.67
2019-01-29T08:36:18.496Z,81.67
2019-01-29T08:38:49.353Z,81.73
2019-01-29T08:41:19.457Z,81.72
2019-01-29T08:43:49.587Z,81.91
2019-01-29T08:46:19.724Z,81.62
2019-01-29T08:48:49.949Z,81.85
2019-01-29T08:51:20.145Z,81.50
2019-01-29T08:53:50.379Z,81.97
2019-01-29T08:56:20.534Z,81.96
2019-01-29T08:58:51.682Z,82.11
2019-01-29T09:01:21.826Z,82.09
2019-01-29T09:03:52.193Z,81.86
2019-01-29T09:06:22.348Z,81.82
2019-01-29T09:08:52.531Z,81.70
2019-01-29T09:11:22.745Z,81.79
2019-01-29T09:13:52.867Z,81.22
2019-01-29T09:16:23.003Z,81.41
2019-01-29T09:18:53.182Z,81.53
2019-01-29T09:21:23.372Z,81.25
2019-01-29T09:23:53.535Z,81.00
2019-01-29T09:26:24.000Z,80.60
2019-01-29T09:28:54.222Z,81.04
2019-01-29T09:31:24.347Z,81.32
2019-01-29T09:33:54.482Z,81.06
2019-01-29T09:36:25.294Z,81.21
2019-01-29T09:38:55.470Z,80.54
2019-01-29T09:41:25.574Z,80.54
2019-01-29T09:43:55.758Z,80.92
2019-01-29T09:46:25.938Z,80.83
2019-01-29T09:48:56.990Z,80.88
2019-01-29T09:51:27.044Z,81.00
2019-01-29T09:53:57.177Z,81.04
2019-01-29T09:56:27.479Z,81.16
2019-01-29T09:58:57.794Z,80.89
2019-01-29T10:01:27.933Z,81.19
2019-01-29T10:03:58.088Z,81.05
2019-01-29T10:06:28.927Z,80.99
2019-01-29T10:08:59.134Z,81.22
2019-01-29T10:11:29.339Z,80.61
2019-01-29T10:13:59.586Z,80.69
2019-01-29T10:16:30.065Z,80.75
2019-01-29T10:19:00.830Z,81.03
2019-01-29T10:21:30.985Z,81.21
2019-01-29T10:24:01.242Z,80.94
2019-01-29T10:26:31.447Z,80.48
2019-01-29T10:29:03.196Z,80.19
2019-01-29T10:31:33.471Z,80.06
2019-01-29T10:34:03.687Z,80.37
2019-01-29T10:36:33.921Z,79.69
2019-01-29T10:39:06.555Z,79.30
2019-01-29T10:41:36.700Z,80.05
2019-01-29T10:44:07.026Z,80.11
2019-01-29T10:46:37.282Z,80.27
2019-01-29T10:49:07.961Z,80.26
2019-01-29T10:51:38.959Z,80.16
2019-01-29T10:54:09.218Z,79.56
2019-01-29T10:56:40.472Z,79.86
2019-01-29T10:59:10.559Z,80.24
2019-01-29T11:01:40.763Z,80.33
2019-01-29T11:04:10.933Z,79.94
2019-01-29T11:06:41.116Z,80.27
2019-01-29T11:09:13.723Z,80.03
2019-01-29T11:11:43.919Z,80.39
2019-01-29T11:14:14.058Z,79.64
2019-01-29T11:16:44.746Z,80.14
2019-01-29T11:19:14.864Z,79.51
2019-01-29T11:21:44.984Z,79.50
2019-01-29T11:24:15.086Z,79.02
2019-01-29T11:26:45.188Z,79.34
2019-01-29T11:29:15.320Z,79.62
2019-01-29T11:31:45.432Z,79.80
2019-01-29T11:34:15.533Z,79.19
2019-01-29T11:36:45.681Z,79.34
2019-01-29T11:39:15.773Z,79.91
2019-01-29T11:41:45.896Z,80.04
2019-01-29T11:44:16.044Z,80.20
2019-01-29T11:46:46.294Z,79.69
2019-01-29T11:49:16.436Z,79.52
2019-01-29T11:51:46.682Z,78.94
2019-01-29T11:54:16.804Z,79.50
2019-01-29T11:56:47.086Z,79.92
2019-01-29T11:59:17.227Z,80.30
2019-01-29T12:01:47.363Z,80.01
2019-01-29T12:04:19.171Z,80.07
2019-01-29T12:06:50.493Z,80.27
2019-01-29T12:09:20.618Z,79.99
2019-01-29T12:11:51.917Z,80.12
2019-01-29T12:14:22.024Z,79.92
2019-01-29T12:16:52.156Z,80.32
2019-01-29T12:19:22.322Z,80.03
2019-01-29T12:21:52.463Z,79.44
2019-01-29T12:24:22.537Z,80.09
2019-01-29T12:26:52.631Z,78.84
2019-01-29T12:29:22.754Z,79.70
2019-01-29T12:31:53.518Z,79.66
2019-01-29T12:34:23.692Z,79.74
2019-01-29T12:36:53.835Z,79.92
2019-01-29T12:39:23.953Z,79.91
2019-01-29T12:41:54.078Z,79.61
2019-01-29T12:44:24.223Z,79.77
2019-01-29T12:46:54.368Z,79.90
2019-01-29T12:49:24.597Z,78.17
2019-01-29T12:52:04.232Z,79.83
2019-01-29T12:54:34.357Z,79.59
2019-01-29T12:57:04.790Z,79.59
2019-01-29T12:59:34.911Z,79.15
2019-01-29T13:02:05.199Z,79.87
2019-01-29T13:04:35.311Z,79.38
2019-01-29T13:07:05.496Z,78.74
2019-01-29T13:09:35.585Z,78.69
2019-01-29T13:12:06.426Z,78.54
2019-01-29T13:14:36.647Z,78.63
2019-01-29T13:17:07.766Z,78.91
2019-01-29T13:19:38.267Z,79.08
2019-01-29T13:22:08.450Z,79.45
2019-01-29T13:24:38.688Z,78.20
2019-01-29T13:27:08.883Z,79.45
2019-01-29T13:29:38.984Z,79.98
2019-01-29T13:32:09.122Z,80.21
2019-01-29T13:34:39.328Z,80.26
2019-01-29T13:37:09.534Z,80.14
2019-01-29T13:39:39.638Z,80.11
2019-01-29T13:42:09.847Z,80.51
2019-01-29T13:44:40.017Z,80.52
2019-01-29T13:47:10.191Z,80.75
2019-01-29T13:49:40.317Z,80.72
2019-01-29T13:52:10.457Z,80.53
2019-01-29T13:54:40.616Z,81.09
2019-01-29T13:57:10.759Z,80.80
2019-01-29T13:59:40.886Z,81.18
2019-01-29T14:02:11.161Z,80.87
2019-01-29T14:04:41.383Z,81.29
2019-01-29T14:07:11.939Z,81.44
2019-01-29T14:09:42.029Z,81.27
2019-01-29T14:12:12.117Z,81.15
2019-01-29T14:14:42.221Z,81.41
2019-01-29T14:17:12.312Z,81.38
2019-01-29T14:19:42.399Z,80.93
2019-01-29T14:22:12.620Z,81.14
2019-01-29T14:24:43.560Z,81.50
2019-01-29T14:27:14.778Z,81.03
2019-01-29T14:29:44.898Z,81.36
2019-01-29T14:32:16.136Z,81.47
2019-01-29T14:34:46.281Z,81.26
2019-01-29T14:37:16.379Z,81.04
2019-01-29T14:40:19.292Z,81.13
2019-01-29T14:42:50.529Z,80.64
2019-01-29T14:45:25.826Z,80.48
2019-01-29T14:47:55.905Z,80.78
2019-01-29T14:50:29.267Z,80.78
2019-01-29T14:52:59.414Z,80.69
2019-01-29T14:55:29.540Z,80.92
2019-01-29T14:58:00.156Z,81.02
2019-01-29T15:00:31.232Z,81.10
2019-01-29T15:03:01.488Z,81.20
2019-01-29T15:05:31.603Z,81.05
2019-01-29T15:08:01.961Z,80.46
2019-01-29T15:10:32.256Z,81.05
2019-01-29T15:13:02.638Z,81.23
2019-01-29T15:15:35.147Z,81.02
2019-01-29T15:18:14.352Z,80.18
2019-01-29T15:20:44.481Z,80.42
2019-01-29T15:23:14.699Z,80.15
2019-01-29T15:25:44.824Z,79.78
2019-01-29T15:28:16.000Z,80.20
2019-01-29T15:30:46.097Z,79.20
2019-01-29T15:33:16.561Z,79.38
2019-01-29T15:35:46.910Z,79.47
2019-01-29T15:38:17.208Z,79.50
2019-01-29T15:40:47.596Z,79.69
2019-01-29T15:43:17.887Z,79.74
2019-01-29T15:45:48.012Z,79.66
2019-01-29T15:48:18.241Z,79.23
2019-01-29T15:50:48.387Z,79.18
2019-01-29T15:53:18.657Z,79.51
2019-01-29T15:55:48.778Z,79.96
2019-01-29T15:58:18.990Z,80.42
2019-01-29T16:00:49.316Z,80.54
2019-01-29T16:03:19.806Z,80.55
2019-01-29T16:05:50.009Z,80.91
2019-01-29T16:08:20.141Z,81.03
2019-01-29T16:10:50.256Z,80.81
2019-01-29T16:13:20.373Z,81.11
2019-01-29T16:15:50.561Z,80.67
2019-01-29T16:18:20.681Z,81.29
2019-01-29T16:20:50.762Z,80.17
2019-01-29T16:23:20.886Z,80.75
2019-01-29T16:25:50.999Z,80.97
2019-01-29T16:28:21.111Z,80.99
2019-01-29T16:30:51.210Z,81.27
2019-01-29T16:33:21.322Z,81.43
2019-01-29T16:35:51.452Z,81.59
2019-01-29T16:38:21.666Z,80.70
2019-01-29T16:41:00.124Z,81.39
2019-01-29T16:43:23.613Z,81.31
2019-01-29T16:45:53.716Z,81.40
2019-01-29T16:48:23.812Z,81.32
2019-01-29T16:50:53.900Z,81.38
2019-01-29T16:53:25.217Z,81.42
2019-01-29T16:55:55.300Z,81.79
2019-01-29T16:58:25.496Z,81.95
2019-01-29T17:00:55.612Z,82.21
2019-01-29T17:03:25.727Z,82.27
2019-01-29T17:05:55.871Z,82.18
2019-01-29T17:08:26.035Z,82.28
2019-01-29T17:10:56.176Z,82.37
2019-01-29T17:13:26.239Z,82.20
2019-01-29T17:15:56.441Z,82.13
2019-01-29T17:18:26.545Z,82.19
2019-01-29T17:20:56.646Z,82.12
2019-01-29T17:23:26.759Z,81.87
2019-01-29T17:25:56.868Z,81.97
2019-01-29T17:28:26.979Z,82.15
2019-01-29T17:30:57.080Z,82.10
2019-01-29T17:33:27.274Z,81.82
2019-01-29T17:35:58.369Z,82.17
2019-01-29T17:38:28.472Z,82.36
2019-01-29T17:40:58.587Z,81.32
2019-01-29T17:43:28.670Z,81.79
2019-01-29T17:45:58.796Z,81.92
2019-01-29T17:48:29.027Z,81.71
2019-01-29T17:50:59.147Z,81.83
2019-01-29T17:53:29.508Z,81.62
2019-01-29T17:55:59.747Z,81.60
2019-01-29T17:58:29.861Z,81.63
2019-01-29T18:01:01.940Z,81.52
2019-01-29T18:03:32.059Z,81.45
2019-01-29T18:06:02.185Z,81.56
2019-01-29T18:08:32.426Z,81.34
2019-01-29T18:11:02.541Z,81.29
2019-01-29T18:13:32.730Z,80.72
2019-01-29T18:16:02.856Z,80.60
2019-01-29T18:18:32.957Z,80.78
2019-01-29T18:21:03.096Z,80.89
2019-01-29T18:23:33.205Z,80.76
2019-01-29T18:26:04.313Z,81.04
2019-01-29T18:28:34.519Z,81.00
2019-01-29T18:31:04.794Z,80.76
2019-01-29T18:33:34.949Z,80.83
2019-01-29T18:36:05.379Z,81.19
2019-01-29T18:38:35.513Z,81.03
2019-01-29T18:41:05.807Z,80.69
2019-01-29T18:43:36.095Z,81.30
2019-01-29T18:46:08.126Z,81.28
2019-01-29T18:48:38.246Z,80.05
2019-01-29T18:51:08.380Z,79.60
2019-01-29T18:53:38.492Z,79.82
2019-01-29T18:56:08.633Z,80.19
2019-01-29T18:58:38.921Z,80.36
2019-01-29T19:01:09.063Z,80.67
2019-01-29T19:03:39.161Z,80.17
2019-01-29T19:06:10.060Z,80.38
2019-01-29T19:08:40.567Z,80.26
2019-01-29T19:11:13.082Z,79.64
2019-01-29T19:13:43.223Z,80.35
2019-01-29T19:16:15.689Z,80.33
2019-01-29T19:18:45.159Z,79.99
2019-01-29T19:21:15.434Z,79.05
2019-01-29T19:23:45.549Z,79.88
2019-01-29T19:26:15.736Z,79.55
2019-01-29T19:28:45.866Z,79.32
2019-01-29T19:31:15.983Z,79.18
2019-01-29T19:33:46.246Z,79.86
2019-01-29T19:36:16.368Z,79.98
2019-01-29T19:38:46.470Z,80.10
2019-01-29T19:41:16.692Z,80.17
2019-01-29T19:43:46.802Z,80.08
2019-01-29T19:46:16.925Z,79.96
2019-01-29T19:48:47.090Z,80.74
2019-01-29T19:51:17.201Z,81.08
2019-01-29T19:53:47.312Z,81.14
2019-01-29T19:56:17.678Z,80.91
2019-01-29T19:58:48.087Z,80.89
2019-01-29T20:01:18.273Z,79.79
2019-01-29T20:03:48.506Z,80.53
2019-01-29T20:06:18.681Z,80.54
2019-01-29T20:08:48.899Z,80.49
2019-01-29T20:11:19.265Z,79.46
2019-01-29T20:13:49.428Z,80.41
2019-01-29T20:16:19.565Z,80.34
2019-01-29T20:18:49.990Z,80.44
2019-01-29T20:21:20.154Z,80.55
2019-01-29T20:23:50.513Z,80.66
2019-01-29T20:26:20.836Z,80.85
2019-01-29T20:28:51.408Z,80.90
2019-01-29T20:31:21.742Z,81.21
2019-01-29T20:33:51.914Z,81.05
2019-01-29T20:36:23.038Z,80.47
2019-01-29T20:38:53.487Z,80.86
2019-01-29T20:41:23.735Z,80.98
2019-01-29T20:43:53.877Z,81.01
2019-01-29T20:46:24.302Z,80.72
2019-01-29T20:48:54.570Z,80.98
2019-01-29T20:51:24.690Z,80.63
2019-01-29T20:53:54.991Z,81.04
2019-01-29T20:56:25.227Z,80.83
2019-01-29T20:58:55.414Z,80.94
2019-01-29T21:01:25.672Z,80.81
2019-01-29T21:03:55.800Z,81.00
2019-01-29T21:06:25.909Z,81.05
2019-01-29T21:08:56.491Z,81.01
2019-01-29T21:11:26.951Z,80.82
2019-01-29T21:13:57.198Z,80.68
2019-01-29T21:16:27.325Z,80.36
2019-01-29T21:18:58.239Z,80.40
2019-01-29T21:21:28.493Z,79.66
2019-01-29T21:23:58.635Z,79.94
2019-01-29T21:26:28.849Z,80.23
2019-01-29T21:29:03.192Z,80.40
2019-01-29T21:31:30.809Z,80.00
2019-01-29T21:34:00.937Z,80.17
2019-01-29T21:36:31.059Z,79.76
2019-01-29T21:39:01.171Z,79.88
2019-01-29T21:41:32.895Z,79.77
2019-01-29T21:44:03.017Z,79.80
2019-01-29T21:46:33.156Z,78.70
2019-01-29T21:49:03.272Z,79.21
2019-01-29T21:51:33.370Z,78.86
2019-01-29T21:54:03.472Z,79.32
2019-01-29T21:56:33.588Z,79.44
2019-01-29T21:59:12.937Z,79.33
2019-01-29T22:01:35.493Z,79.22
2019-01-29T22:04:05.603Z,79.11
2019-01-29T22:06:35.697Z,79.51
2019-01-29T22:09:09.424Z,78.90
2019-01-29T22:11:39.518Z,79.03
2019-01-29T22:14:10.709Z,78.92
2019-01-29T22:16:41.296Z,78.95
2019-01-29T22:19:11.407Z,78.64
2019-01-29T22:21:41.509Z,78.98
2019-01-29T22:24:11.631Z,79.15
2019-01-29T22:26:41.747Z,78.67
2019-01-29T22:29:11.855Z,78.75
2019-01-29T22:31:41.947Z,78.92
2019-01-29T22:34:12.088Z,78.59
2019-01-29T22:36:42.199Z,78.94
2019-01-29T22:39:12.371Z,79.04
2019-01-29T22:41:42.468Z,79.05
2019-01-29T22:44:12.565Z,79.24
2019-01-29T22:46:42.690Z,79.36
2019-01-29T22:49:12.870Z,79.37
2019-01-29T22:51:42.978Z,79.42
2019-01-29T22:54:13.100Z,79.40
2019-01-29T22:56:43.200Z,79.33
2019-01-29T22:59:13.315Z,79.45
2019-01-29T23:01:43.785Z,79.13
2019-01-29T23:04:29.420Z,79.36
2019-01-29T23:07:14.615Z,79.69
2019-01-29T23:09:44.749Z,79.52
2019-01-29T23:12:14.879Z,79.54
2019-01-29T23:14:45.044Z,79.25
2019-01-29T23:17:15.142Z,78.85
2019-01-29T23:19:45.279Z,79.20
2019-01-29T23:22:15.395Z,79.15
2019-01-29T23:24:45.511Z,79.32
2019-01-29T23:27:15.612Z,79.10
2019-01-29T23:29:45.714Z,79.16
2019-01-29T23:32:17.003Z,79.21
2019-01-29T23:34:47.103Z,79.22
2019-01-29T23:37:17.230Z,79.25
2019-01-29T23:39:47.425Z,78.68
2019-01-29T23:42:17.584Z,78.95
2019-01-29T23:44:47.686Z,79.11
2019-01-29T23:47:17.814Z,79.20
2019-01-29T23:49:47.934Z,79.13
2019-01-29T23:52:18.011Z,78.69
2019-01-29T23:54:48.120Z,78.58
2019-01-29T23:57:18.230Z,78.94
2019-01-29T23:59:53.623Z,79.14
